createdAt,value
2022-09-26T00:01:10.523Z,13.68
2022-09-26T00:04:23.000Z,15.68
2022-09-26T00:07:28.903Z,11.60
2022-09-26T00:10:34.167Z,13.63
2022-09-26T00:13:40.836Z,9.68
2022-09-26T00:16:48.845Z,11.93
2022-09-26T00:19:53.904Z,9.80
2022-09-26T00:22:59.328Z,10.40
2022-09-26T00:26:04.584Z,12.93
2022-09-26T00:29:10.483Z,8.93
2022-09-26T00:32:18.366Z,12.32
2022-09-26T00:35:23.320Z,10.97
2022-09-26T00:38:28.497Z,12.98
2022-09-26T00:41:33.881Z,11.13
2022-09-26T00:44:47.922Z,13.57
2022-09-26T00:47:59.736Z,9.70
2022-09-26T00:51:04.988Z,11.05
2022-09-26T00:54:12.284Z,12.13
2022-09-26T00:57:19.167Z,11.85
2022-09-26T01:00:24.613Z,10.82
2022-09-26T01:03:34.169Z,8.73
2022-09-26T01:06:39.849Z,11.15
2022-09-26T01:09:45.610Z,11.75
2022-09-26T01:12:53.231Z,11.48
2022-09-26T01:15:58.195Z,9.00
2022-09-26T01:19:11.781Z,9.27
2022-09-26T01:22:38.011Z,10.43
2022-09-26T01:25:54.639Z,10.52
2022-09-26T01:29:14.483Z,11.57
2022-09-26T01:32:42.444Z,9.68
2022-09-26T01:36:11.229Z,11.55
2022-09-26T01:39:26.946Z,9.77
2022-09-26T01:42:37.417Z,10.95
2022-09-26T01:45:47.309Z,12.25
2022-09-26T01:48:57.242Z,10.98
2022-09-26T01:52:03.820Z,8.85
2022-09-26T01:55:11.538Z,9.15
2022-09-26T01:58:19.319Z,12.03
2022-09-26T02:01:25.982Z,9.63
2022-09-26T02:04:36.408Z,10.82
2022-09-26T02:07:45.505Z,11.25
2022-09-26T02:10:52.349Z,11.43
2022-09-26T02:13:59.865Z,11.88
2022-09-26T02:17:07.784Z,9.35
2022-09-26T02:20:18.723Z,13.13
2022-09-26T02:23:23.891Z,11.45
2022-09-26T02:26:32.383Z,9.75
2022-09-26T02:29:39.347Z,11.85
2022-09-26T02:32:45.422Z,22.85
2022-09-26T02:35:59.280Z,9.45
2022-09-26T02:39:08.472Z,11.05
2022-09-26T02:42:50.740Z,11.27
2022-09-26T02:46:00.582Z,11.50
2022-09-26T02:49:12.186Z,10.52
2022-09-26T02:52:24.798Z,12.00
2022-09-26T02:55:35.501Z,9.02
2022-09-26T02:58:48.198Z,9.65
2022-09-26T03:01:56.866Z,10.38
2022-09-26T03:05:05.106Z,12.32
2022-09-26T03:08:14.709Z,13.10
2022-09-26T03:11:21.491Z,10.77
2022-09-26T03:14:26.446Z,9.75
2022-09-26T03:17:31.478Z,12.43
2022-09-26T03:20:37.072Z,10.48
2022-09-26T03:23:45.211Z,11.02
2022-09-26T03:26:50.878Z,12.18
2022-09-26T03:29:56.525Z,10.48
2022-09-26T03:33:03.673Z,13.98
2022-09-26T03:36:10.191Z,13.27
2022-09-26T03:39:18.521Z,16.73
2022-09-26T03:42:43.659Z,15.02
2022-09-26T03:45:49.118Z,12.35
2022-09-26T03:48:59.326Z,14.73
2022-09-26T03:52:04.658Z,12.30
2022-09-26T03:55:12.785Z,12.35
2022-09-26T03:58:18.257Z,11.60
2022-09-26T04:01:24.212Z,12.40
2022-09-26T04:04:29.572Z,12.93
2022-09-26T04:07:34.559Z,12.07
2022-09-26T04:10:45.210Z,16.48
2022-09-26T04:13:53.391Z,17.00
2022-09-26T04:17:01.830Z,13.55
2022-09-26T04:20:12.149Z,10.45
2022-09-26T04:23:18.037Z,11.13
2022-09-26T04:26:26.431Z,8.85
2022-09-26T04:29:31.697Z,10.80
2022-09-26T04:32:46.254Z,12.20
2022-09-26T04:36:11.833Z,11.93
2022-09-26T04:39:17.530Z,11.18
2022-09-26T04:42:26.864Z,10.30
2022-09-26T04:45:33.818Z,10.68
2022-09-26T04:48:40.250Z,10.30
2022-09-26T04:51:56.253Z,10.70
2022-09-26T04:55:02.138Z,11.25
2022-09-26T04:58:10.895Z,8.70
2022-09-26T05:01:16.844Z,10.03
2022-09-26T05:04:39.869Z,9.68
2022-09-26T05:07:45.260Z,8.38
2022-09-26T05:10:55.325Z,10.68
2022-09-26T05:14:03.711Z,11.02
2022-09-26T05:20:15.912Z,12.30
2022-09-26T05:23:46.071Z,9.65
2022-09-26T05:26:55.479Z,15.20
2022-09-26T05:30:03.603Z,9.82
2022-09-26T05:33:08.759Z,12.38
2022-09-26T05:36:13.929Z,8.77
2022-09-26T05:39:31.295Z,10.70
2022-09-26T05:42:36.648Z,23.73
2022-09-26T05:45:50.520Z,10.82
2022-09-26T05:48:59.632Z,11.43
2022-09-26T05:52:05.330Z,12.23
2022-09-26T05:55:12.541Z,12.77
2022-09-26T05:58:37.217Z,10.10
2022-09-26T06:02:07.451Z,11.90
2022-09-26T06:05:30.567Z,10.02
2022-09-26T06:08:39.274Z,7.90
2022-09-26T06:12:10.611Z,9.30
2022-09-26T06:15:16.107Z,12.70
2022-09-26T06:18:24.110Z,8.65
2022-09-26T06:21:30.177Z,12.02
2022-09-26T06:24:47.301Z,10.70
2022-09-26T06:28:00.101Z,10.00
2022-09-26T06:31:12.022Z,9.57
2022-09-26T06:34:38.288Z,10.10
2022-09-26T06:38:12.479Z,12.30
2022-09-26T06:41:18.105Z,11.45
2022-09-26T06:44:24.709Z,8.45
2022-09-26T06:47:49.191Z,11.68
2022-09-26T06:51:13.739Z,11.82
2022-09-26T06:54:19.294Z,13.10
2022-09-26T06:57:25.120Z,12.13
2022-09-26T07:00:31.649Z,11.55
2022-09-26T07:03:54.131Z,12.60
2022-09-26T07:07:34.665Z,11.35
2022-09-26T07:10:39.916Z,10.30
2022-09-26T07:13:51.011Z,10.60
2022-09-26T07:16:56.104Z,12.25
2022-09-26T07:20:13.126Z,9.88
2022-09-26T07:23:46.689Z,11.02
2022-09-26T07:29:58.703Z,8.27
2022-09-26T07:33:05.668Z,7.65
2022-09-26T07:36:14.680Z,8.73
2022-09-26T07:39:23.631Z,6.95
2022-09-26T07:42:28.930Z,9.30
2022-09-26T07:45:46.195Z,8.82
2022-09-26T07:49:04.233Z,7.35
2022-09-26T07:52:15.186Z,8.40
2022-09-26T07:56:01.713Z,5.45
2022-09-26T07:59:25.854Z,9.70
2022-09-26T08:02:58.547Z,7.32
2022-09-26T08:06:04.353Z,7.05
2022-09-26T08:09:09.853Z,9.18
2022-09-26T08:12:40.354Z,5.68
2022-09-26T08:16:05.963Z,4.18
2022-09-26T08:19:17.643Z,2.83
2022-09-26T08:22:23.368Z,1.15
2022-09-26T08:25:31.583Z,3.23
2022-09-26T08:28:49.109Z,1.13
2022-09-26T08:31:55.405Z,1.55
2022-09-26T08:35:00.684Z,1.55
2022-09-26T08:38:14.824Z,2.15
2022-09-26T08:41:32.879Z,2.92
2022-09-26T08:45:27.558Z,3.75
2022-09-26T08:49:20.431Z,3.95
2022-09-26T08:52:30.353Z,3.65
2022-09-26T08:55:37.553Z,2.38
2022-09-26T08:58:44.117Z,3.08
2022-09-26T09:01:52.967Z,2.40
2022-09-26T09:05:08.278Z,5.55
2022-09-26T09:08:22.303Z,3.45
2022-09-26T09:11:59.749Z,2.72
2022-09-26T09:15:26.126Z,2.33
2022-09-26T09:19:01.125Z,3.67
2022-09-26T09:22:41.048Z,3.22
2022-09-26T09:27:52.307Z,2.83
2022-09-26T09:29:36.631Z,2.30
2022-09-26T09:33:13.553Z,2.50
2022-09-26T09:36:27.339Z,9.60
2022-09-26T09:40:15.168Z,3.30
2022-09-26T09:43:33.343Z,2.45
2022-09-26T09:46:46.712Z,5.05
2022-09-26T09:49:52.181Z,2.22
2022-09-26T09:53:06.583Z,2.88
2022-09-26T09:56:20.469Z,3.38
2022-09-26T09:59:39.941Z,2.38
2022-09-26T10:02:50.700Z,1.52
2022-09-26T10:06:01.665Z,2.42
2022-09-26T10:09:39.630Z,1.08
2022-09-26T10:13:04.230Z,1.05
2022-09-26T10:16:35.815Z,2.45
2022-09-26T10:19:46.500Z,2.30
2022-09-26T10:22:52.351Z,1.10
2022-09-26T10:26:06.275Z,3.05
2022-09-26T10:29:25.120Z,3.03
2022-09-26T10:32:32.352Z,6.90
2022-09-26T10:36:05.398Z,1.73
2022-09-26T10:39:32.567Z,3.97
2022-09-26T10:42:40.490Z,2.75
2022-09-26T10:45:46.689Z,5.20
2022-09-26T10:49:17.349Z,11.05
2022-09-26T10:52:43.216Z,4.38
2022-09-26T10:55:51.560Z,1.92
2022-09-26T11:02:06.199Z,1.17
2022-09-26T11:05:24.199Z,3.22
2022-09-26T11:08:41.353Z,3.13
2022-09-26T11:12:22.862Z,1.27
2022-09-26T11:15:28.970Z,1.02
2022-09-26T11:18:43.275Z,1.42
2022-09-26T11:21:51.824Z,3.33
2022-09-26T11:28:08.057Z,1.80
2022-09-26T11:31:41.408Z,3.28
2022-09-26T11:35:07.501Z,3.55
2022-09-26T11:38:22.388Z,2.85
2022-09-26T11:41:39.756Z,1.00
2022-09-26T11:44:53.615Z,2.75
2022-09-26T11:48:18.963Z,1.58
2022-09-26T11:52:14.873Z,2.60
2022-09-26T11:55:31.410Z,1.70
2022-09-26T11:58:41.199Z,1.63
2022-09-26T12:01:55.362Z,1.58
2022-09-26T12:05:15.165Z,2.25
2022-09-26T12:08:29.754Z,0.93
2022-09-26T12:11:38.858Z,0.95
2022-09-26T12:14:56.152Z,1.38
2022-09-26T12:18:12.613Z,1.10
2022-09-26T12:21:23.741Z,3.40
2022-09-26T12:24:33.870Z,2.72
2022-09-26T12:27:42.616Z,2.45
2022-09-26T12:30:52.261Z,2.45
2022-09-26T12:34:12.812Z,3.45
2022-09-26T12:37:26.989Z,1.02
2022-09-26T12:40:39.405Z,2.05
2022-09-26T12:44:05.250Z,1.55
2022-09-26T12:47:25.295Z,1.60
2022-09-26T12:50:33.942Z,1.15
2022-09-26T12:53:59.481Z,1.98
2022-09-26T12:57:09.920Z,0.95
2022-09-26T13:00:18.906Z,1.23
2022-09-26T13:03:41.687Z,1.38
2022-09-26T13:07:17.819Z,1.73
2022-09-26T13:10:29.150Z,3.10
2022-09-26T13:13:46.410Z,5.55
2022-09-26T13:16:56.843Z,0.98
2022-09-26T13:20:04.682Z,0.93
2022-09-26T13:23:12.527Z,1.48
2022-09-26T13:26:21.628Z,3.25
2022-09-26T13:29:31.109Z,2.10
2022-09-26T13:32:42.165Z,3.72
2022-09-26T13:35:48.348Z,3.08
2022-09-26T13:38:57.429Z,4.90
2022-09-26T13:42:06.385Z,5.28
2022-09-26T13:45:24.265Z,8.45
2022-09-26T13:48:35.633Z,4.40
2022-09-26T13:51:48.588Z,4.38
2022-09-26T13:54:59.339Z,4.70
2022-09-26T13:58:07.670Z,1.38
2022-09-26T14:01:31.381Z,4.82
2022-09-26T14:04:37.256Z,2.53
2022-09-26T14:08:04.950Z,4.75
2022-09-26T14:11:24.692Z,1.00
2022-09-26T14:14:41.531Z,1.13
2022-09-26T14:18:04.288Z,4.50
2022-09-26T14:21:19.443Z,1.10
2022-09-26T14:24:32.424Z,1.73
2022-09-26T14:27:46.837Z,2.95
2022-09-26T14:31:06.889Z,0.95
2022-09-26T14:34:25.910Z,1.73
2022-09-26T14:37:36.901Z,3.33
2022-09-26T14:40:42.515Z,1.65
2022-09-26T14:43:47.489Z,1.63
2022-09-26T14:46:55.975Z,1.75
2022-09-26T14:50:03.558Z,2.80
2022-09-26T14:53:21.615Z,2.03
2022-09-26T14:56:35.557Z,2.20
2022-09-26T14:59:42.483Z,4.15
2022-09-26T15:02:50.674Z,2.45
2022-09-26T15:05:55.765Z,5.65
2022-09-26T15:09:11.401Z,1.80
2022-09-26T15:12:19.073Z,4.70
2022-09-26T15:15:32.406Z,4.33
2022-09-26T15:18:40.342Z,3.72
2022-09-26T15:21:47.342Z,4.55
2022-09-26T15:24:58.319Z,3.30
2022-09-26T15:28:04.664Z,3.40
2022-09-26T15:31:29.000Z,6.32
2022-09-26T15:34:37.169Z,3.63
2022-09-26T15:37:42.475Z,3.85
2022-09-26T15:41:01.636Z,4.53
2022-09-26T15:44:06.474Z,7.07
2022-09-26T15:47:28.479Z,1.90
2022-09-26T15:50:39.947Z,3.38
2022-09-26T15:53:46.475Z,2.75
2022-09-26T15:56:54.949Z,1.38
2022-09-26T16:03:21.615Z,5.95
2022-09-26T16:06:28.613Z,3.42
2022-09-26T16:09:35.268Z,4.07
2022-09-26T16:12:43.434Z,5.22
2022-09-26T16:15:48.727Z,2.35
2022-09-26T16:18:56.606Z,5.03
2022-09-26T16:22:02.332Z,3.40
2022-09-26T16:25:37.431Z,6.03
2022-09-26T16:28:50.444Z,7.72
2022-09-26T16:31:55.559Z,5.55
2022-09-26T16:35:13.331Z,2.83
2022-09-26T16:38:24.403Z,3.17
2022-09-26T16:41:59.485Z,4.85
2022-09-26T16:44:59.497Z,8.93
2022-09-26T16:48:05.892Z,5.07
2022-09-26T16:51:18.129Z,5.82
2022-09-26T16:54:23.333Z,2.65
2022-09-26T16:57:30.485Z,3.35
2022-09-26T17:00:59.490Z,5.32
2022-09-26T17:04:05.140Z,5.80
2022-09-26T17:07:13.960Z,5.60
2022-09-26T17:13:24.876Z,3.47
2022-09-26T17:16:34.498Z,7.35
2022-09-26T17:19:41.345Z,4.28
2022-09-26T17:22:46.401Z,7.03
2022-09-26T17:25:56.822Z,5.22
2022-09-26T17:29:03.396Z,4.57
2022-09-26T17:32:14.067Z,3.58
2022-09-26T17:35:21.862Z,6.47
2022-09-26T17:38:27.221Z,6.10
2022-09-26T17:41:34.599Z,7.15
2022-09-26T17:44:39.760Z,4.60
2022-09-26T17:47:47.466Z,6.88
2022-09-26T17:50:52.807Z,6.95
2022-09-26T17:53:58.065Z,5.80
2022-09-26T17:57:03.851Z,4.88
2022-09-26T18:00:11.709Z,7.78
2022-09-26T18:03:23.765Z,6.55
2022-09-26T18:06:31.781Z,5.75
2022-09-26T18:09:39.038Z,8.52
2022-09-26T18:12:44.761Z,4.70
2022-09-26T18:15:51.384Z,4.40
2022-09-26T18:19:02.200Z,4.97
2022-09-26T18:22:14.105Z,7.88
2022-09-26T18:25:21.778Z,4.45
2022-09-26T18:28:26.953Z,4.53
2022-09-26T18:31:32.981Z,4.68
2022-09-26T18:34:40.957Z,5.57
2022-09-26T18:37:46.274Z,4.45
2022-09-26T18:40:55.560Z,6.20
2022-09-26T18:44:03.409Z,7.72
2022-09-26T18:47:12.687Z,4.15
2022-09-26T18:50:26.552Z,4.78
2022-09-26T18:53:37.413Z,7.55
2022-09-26T18:56:55.074Z,5.57
2022-09-26T19:00:00.520Z,10.40
2022-09-26T19:03:05.689Z,7.80
2022-09-26T19:06:16.537Z,6.32
2022-09-26T19:09:22.847Z,6.53
2022-09-26T19:12:27.911Z,4.85
2022-09-26T19:15:33.046Z,4.60
2022-09-26T19:18:38.703Z,5.53
2022-09-26T19:21:47.473Z,4.72
2022-09-26T19:24:55.574Z,6.13
2022-09-26T19:28:00.715Z,6.38
2022-09-26T19:31:06.558Z,5.75
2022-09-26T19:34:12.822Z,5.13
2022-09-26T19:37:20.727Z,5.47
2022-09-26T19:40:26.301Z,5.37
2022-09-26T19:43:31.493Z,5.43
2022-09-26T19:46:36.995Z,5.80
2022-09-26T19:49:42.210Z,8.18
2022-09-26T19:52:49.900Z,6.88
2022-09-26T19:55:56.007Z,7.47
2022-09-26T19:59:01.265Z,9.25
2022-09-26T20:02:06.319Z,6.18
2022-09-26T20:05:17.903Z,6.18
2022-09-26T20:08:26.720Z,10.32
2022-09-26T20:11:32.032Z,8.15
2022-09-26T20:14:37.364Z,9.05
2022-09-26T20:17:44.501Z,7.45
2022-09-26T20:20:50.390Z,8.32
2022-09-26T20:23:58.843Z,6.70
2022-09-26T20:30:21.949Z,5.25
2022-09-26T20:33:27.663Z,7.60
2022-09-26T20:36:36.129Z,7.57
2022-09-26T20:39:44.427Z,6.50
2022-09-26T20:42:50.621Z,5.57
2022-09-26T20:45:55.827Z,4.97
2022-09-26T20:49:01.139Z,6.38
2022-09-26T20:52:09.195Z,6.60
2022-09-26T20:55:20.068Z,8.95
2022-09-26T20:58:25.381Z,5.32
2022-09-26T21:01:30.963Z,5.35
2022-09-26T21:04:36.108Z,7.50
2022-09-26T21:07:41.193Z,6.80
2022-09-26T21:10:48.861Z,9.57
2022-09-26T21:13:54.237Z,6.45
2022-09-26T21:16:59.488Z,6.05
2022-09-26T21:20:05.088Z,6.55
2022-09-26T21:23:31.491Z,6.13
2022-09-26T21:26:39.168Z,6.18
2022-09-26T21:29:44.245Z,10.33
2022-09-26T21:32:50.447Z,7.70
2022-09-26T21:35:55.720Z,7.13
2022-09-26T21:39:00.885Z,5.65
2022-09-26T21:42:09.563Z,13.18
2022-09-26T21:45:15.015Z,9.13
2022-09-26T21:48:20.416Z,8.52
2022-09-26T21:51:26.941Z,5.95
2022-09-26T21:54:32.801Z,6.68
2022-09-26T21:57:41.910Z,11.80
2022-09-26T22:00:46.941Z,52.85
2022-09-26T22:03:52.210Z,10.70
2022-09-26T22:06:57.190Z,8.75
2022-09-26T22:10:02.304Z,15.98
2022-09-26T22:13:11.243Z,8.65
2022-09-26T22:16:16.649Z,30.67
2022-09-26T22:19:22.014Z,11.77
2022-09-26T22:22:27.254Z,37.67
2022-09-26T22:25:32.483Z,89.53
2022-09-26T22:28:40.236Z,73.82
2022-09-26T22:31:45.331Z,15.13
2022-09-26T22:34:50.368Z,31.50
2022-09-26T22:37:55.571Z,64.80
2022-09-26T22:41:01.011Z,12.27
2022-09-26T22:44:08.591Z,21.65
2022-09-26T22:47:13.731Z,24.13
2022-09-26T22:50:19.200Z,14.02
2022-09-26T22:53:24.259Z,8.63
2022-09-26T22:56:29.444Z,11.07
2022-09-26T22:59:37.391Z,9.23
2022-09-26T23:02:42.577Z,41.13
2022-09-26T23:05:50.397Z,11.70
2022-09-26T23:08:55.535Z,53.80
2022-09-26T23:12:00.609Z,104.40
2022-09-26T23:15:09.859Z,72.95
2022-09-26T23:18:14.910Z,42.22
2022-09-26T23:21:21.044Z,32.78
2022-09-26T23:24:26.175Z,56.38
2022-09-26T23:27:31.334Z,31.83
2022-09-26T23:30:39.032Z,21.90
2022-09-26T23:33:44.480Z,31.53
2022-09-26T23:36:49.490Z,13.10
2022-09-26T23:39:54.724Z,57.47
2022-09-26T23:42:59.846Z,96.57
2022-09-26T23:46:07.606Z,21.88
2022-09-26T23:49:12.937Z,14.15
2022-09-26T23:52:17.860Z,106.18
2022-09-26T23:55:23.087Z,152.88
2022-09-26T23:58:28.705Z,163.43
